Time;durP1;ratioP1;P1;durP2;ratioP2;P2;SDS_P1;SDS_P2;PMS_P1;PMS_P2;Temp;Humidity;BMP_temperature;BMP_pressure;BME280_temperature;BME280_humidity;BME280_pressure;Samples;Min_cycle;Max_cycle;Signal;HPM_P1;HPM_P2
2022/12/05 00:01:23;;;;;;;13.67;6.57;;;1.90;99.90;;;;;;5052704;28;20465;-76
2022/12/05 00:03:52;;;;;;;13.73;7.03;;;1.80;99.90;;;;;;5053367;28;20495;-74
2022/12/05 00:06:20;;;;;;;20.30;7.90;;;1.80;99.90;;;;;;5053336;28;20453;-73
2022/12/05 00:08:49;;;;;;;5.53;4.37;;;1.40;99.90;;;;;;5053087;28;20483;-73
2022/12/05 00:11:18;;;;;;;17.83;8.40;;;1.70;99.90;;;;;;5052117;28;20469;-73
2022/12/05 00:13:46;;;;;;;17.13;8.37;;;1.70;99.90;;;;;;5053025;28;20451;-76
2022/12/05 00:16:19;;;;;;;17.03;7.90;;;1.70;99.90;;;;;;5053214;28;20452;-73
2022/12/05 00:18:46;;;;;;;13.67;3.70;;;;;;;;;;5051412;28;20458;-73
2022/12/05 00:21:14;;;;;;;16.20;8.17;;;1.70;99.90;;;;;;5053087;28;20457;-73
2022/12/05 00:23:42;;;;;;;16.70;6.93;;;;;;;;;;5053051;28;20483;-73
2022/12/05 00:26:10;;;;;;;19.53;8.73;;;;;;;;;;5052947;28;20450;-74
2022/12/05 00:28:37;;;;;;;17.43;7.30;;;;;;;;;;5052945;28;20451;-74
2022/12/05 00:31:05;;;;;;;26.77;8.97;;;1.70;99.90;;;;;;5052891;28;20447;-72
2022/12/05 00:33:32;;;;;;;15.20;7.93;;;;;;;;;;5051759;28;20454;-73
2022/12/05 00:36:02;;;;;;;17.93;8.10;;;1.80;99.90;;;;;;5052842;28;20455;-75
2022/12/05 00:38:29;;;;;;;14.80;9.07;;;;;;;;;;5052242;28;20466;-73
2022/12/05 00:40:56;;;;;;;18.37;7.73;;;;;;;;;;5052702;28;20447;-75
2022/12/05 00:43:25;;;;;;;14.23;5.70;;;;;;;;;;5052675;28;20494;-72
2022/12/05 00:45:52;;;;;;;13.90;7.30;;;;;;;;;;5052758;28;20474;-72
2022/12/05 00:48:19;;;;;;;14.27;7.60;;;;;;;;;;5051610;28;20443;-72
2022/12/05 00:50:46;;;;;;;14.57;8.47;;;;;;;;;;5052122;28;20486;-73
2022/12/05 00:53:13;;;;;;;15.47;7.50;;;;;;;;;;5052616;28;21134;-73
2022/12/05 00:55:40;;;;;;;13.80;7.37;;;;;;;;;;5052594;28;20477;-72
2022/12/05 00:58:07;;;;;;;15.50;7.57;;;;;;;;;;5052065;28;20443;-73
2022/12/05 01:00:35;;;;;;;14.60;6.67;;;1.80;99.90;;;;;;5052681;28;20984;-73
2022/12/05 01:03:02;;;;;;;18.53;8.93;;;;;;;;;;5051375;28;20714;-73
2022/12/05 01:05:29;;;;;;;17.00;8.13;;;;;;;;;;5052588;28;20529;-73
2022/12/05 01:07:56;;;;;;;7.00;3.67;;;;;;;;;;5052400;28;20453;-73
2022/12/05 01:10:24;;;;;;;14.63;7.30;;;;;;;;;;5052104;28;20489;-72
2022/12/05 01:12:51;;;;;;;12.27;6.20;;;;;;;;;;5052603;28;20451;-74
2022/12/05 01:15:18;;;;;;;4.63;2.53;;;;;;;;;;5052488;28;20454;-77
2022/12/05 01:17:46;;;;;;;13.47;6.10;;;1.80;99.90;;;;;;5051241;28;20446;-76
2022/12/05 01:20:13;;;;;;;6.27;3.80;;;;;;;;;;5052530;28;20451;-73
2022/12/05 01:22:41;;;;;;;13.03;5.57;;;;;;;;;;5051778;28;20470;-75
2022/12/05 01:25:08;;;;;;;13.90;6.90;;;;;;;;;;5054582;28;20942;-74
2022/12/05 01:27:35;;;;;;;10.83;5.37;;;;;;;;;;5056273;28;20457;-73
2022/12/05 01:30:02;;;;;;;6.50;4.27;;;;;;;;;;5056241;28;20533;-73
2022/12/05 01:32:29;;;;;;;13.03;5.87;;;;;;;;;;5055383;28;20489;-72
2022/12/05 01:34:58;;;;;;;15.27;5.53;;;1.80;99.90;;;;;;5055970;28;20541;-73
2022/12/05 01:37:25;;;;;;;13.50;5.70;;;;;;;;;;5055114;28;20498;-73
2022/12/05 01:39:52;;;;;;;10.27;6.27;;;;;;;;;;5055751;28;20502;-73
2022/12/05 01:42:19;;;;;;;14.67;7.17;;;;;;;;;;5056004;28;20534;-77
2022/12/05 01:45:06;;;;;;;12.40;6.83;;;1.80;99.90;;;;;;5055662;28;20576;-73
2022/12/05 01:47:35;;;;;;;16.13;5.20;;;1.80;99.90;;;;;;5054721;28;20454;-74
2022/12/05 01:50:04;;;;;;;14.60;6.60;;;1.80;99.90;;;;;;5054860;28;20925;-73
2022/12/05 01:52:33;;;;;;;11.87;6.20;;;1.80;99.90;;;;;;5055866;28;20542;-74
2022/12/05 01:55:08;;;;;;;18.20;8.33;;;1.90;99.90;;;;;;5055804;28;20442;-73
2022/12/05 01:57:35;;;;;;;12.50;6.90;;;;;;;;;;5055775;28;20960;-73
2022/12/05 02:00:09;;;;;;;13.93;6.43;;;1.90;99.90;;;;;;5055308;28;20451;-76
2022/12/05 02:02:36;;;;;;;7.93;3.80;;;;;;;;;;5054472;28;20991;-77
2022/12/05 02:05:08;;;;;;;19.97;5.97;;;1.70;99.90;;;;;;5055611;28;20525;-73
2022/12/05 02:07:39;;;;;;;18.17;7.13;;;1.80;99.90;;;;;;5055730;28;20442;-75
2022/12/05 02:10:07;;;;;;;12.17;6.10;;;1.80;99.90;;;;;;5055490;28;20478;-73
2022/12/05 02:12:35;;;;;;;15.63;8.07;;;1.80;99.90;;;;;;5055383;28;20964;-74
2022/12/05 02:15:18;;;;;;;14.90;7.43;;;1.80;99.90;;;;;;5055477;28;21004;-75
2022/12/05 02:17:56;;;;;;;17.80;7.40;;;1.80;99.90;;;;;;5054217;28;20450;-76
2022/12/05 02:20:37;;;;;;;15.03;4.30;;;1.80;99.90;;;;;;5055476;28;20820;-73
2022/12/05 02:23:39;;;;;;;20.60;7.30;;;1.80;99.90;;;;;;5055145;28;20530;-73
2022/12/05 02:26:41;;;;;;;15.03;7.07;;;1.90;99.90;;;;;;5053414;28;20450;-73
2022/12/05 02:29:29;;;;;;;21.20;8.20;;;1.90;99.90;;;;;;5054872;28;20458;-72
2022/12/05 02:32:04;;;;;;;20.27;9.30;;;2.20;99.90;;;;;;5055165;28;20451;-74
2022/12/05 02:34:36;;;;;;;12.13;6.37;;;1.90;99.90;;;;;;5053755;28;20850;-73
2022/12/05 02:37:08;;;;;;;15.73;8.37;;;2.00;99.90;;;;;;5053828;28;20443;-72
2022/12/05 02:39:40;;;;;;;14.60;7.07;;;2.00;99.90;;;;;;5053577;28;20467;-73
2022/12/05 02:42:14;;;;;;;17.00;7.73;;;2.00;99.90;;;;;;5055031;28;20846;-73
2022/12/05 02:44:45;;;;;;;19.43;8.70;;;2.00;99.90;;;;;;5054951;28;20490;-74
2022/12/05 02:47:16;;;;;;;13.60;6.67;;;2.00;99.90;;;;;;5054953;28;20811;-73
2022/12/05 02:49:44;;;;;;;20.10;7.50;;;;;;;;;;5053625;28;20474;-73
2022/12/05 02:52:14;;;;;;;17.70;7.33;;;2.00;99.90;;;;;;5054759;28;20454;-73
2022/12/05 02:54:43;;;;;;;22.60;8.00;;;2.10;99.90;;;;;;5054744;28;20457;-73
2022/12/05 02:57:12;;;;;;;15.17;8.00;;;2.10;99.90;;;;;;5053579;28;20467;-72
2022/12/05 02:59:39;;;;;;;23.83;9.30;;;;;;;;;;5054707;28;21155;-76
2022/12/05 03:02:08;;;;;;;22.60;10.23;;;1.80;99.90;;;;;;5054713;28;20442;-72
2022/12/05 03:04:37;;;;;;;16.83;7.20;;;2.10;99.90;;;;;;5053314;28;20611;-73
2022/12/05 03:07:07;;;;;;;22.53;9.30;;;2.10;99.90;;;;;;5054494;28;20458;-73
2022/12/05 03:09:37;;;;;;;5.30;3.47;;;2.10;99.90;;;;;;5054361;28;20486;-74
2022/12/05 03:12:10;;;;;;;19.40;8.80;;;2.10;99.90;;;;;;5054559;28;20461;-73
2022/12/05 03:14:40;;;;;;;15.63;8.53;;;2.20;99.90;;;;;;5053220;28;20462;-77
2022/12/05 03:17:10;;;;;;;22.80;10.40;;;2.10;99.90;;;;;;5052565;28;20463;-74
2022/12/05 03:19:47;;;;;;;17.73;8.97;;;2.20;99.90;;;;;;5052784;28;20465;-73
2022/12/05 03:22:20;;;;;;;17.97;8.57;;;2.30;99.90;;;;;;5054232;28;20465;-73
2022/12/05 03:24:47;;;;;;;19.87;9.00;;;;;;;;;;5053067;28;20498;-74
2022/12/05 03:27:22;;;;;;;18.50;7.33;;;2.20;99.90;;;;;;5053156;28;20466;-75
2022/12/05 03:29:54;;;;;;;22.37;9.50;;;2.30;99.90;;;;;;5054038;28;20858;-73
2022/12/05 03:32:24;;;;;;;18.23;7.47;;;2.40;99.90;;;;;;5054080;28;20442;-72
2022/12/05 03:35:03;;;;;;;15.07;7.70;;;2.30;99.90;;;;;;5053165;28;20957;-76
2022/12/05 03:37:39;;;;;;;16.87;8.13;;;2.20;99.90;;;;;;5054026;28;20450;-75
2022/12/05 03:40:12;;;;;;;18.43;7.97;;;2.50;99.90;;;;;;5052923;28;20453;-73
2022/12/05 03:42:46;;;;;;;20.03;8.63;;;2.20;99.90;;;;;;5053838;28;20452;-74
2022/12/05 03:45:20;;;;;;;12.90;6.43;;;3.80;99.90;;;;;;5053691;28;21058;-73
2022/12/05 03:47:50;;;;;;;12.67;7.03;;;2.30;99.90;;;;;;5052231;28;20462;-76
2022/12/05 03:50:23;;;;;;;15.60;7.27;;;2.30;99.90;;;;;;5052689;28;20487;-74
2022/12/05 03:52:55;;;;;;;17.17;8.77;;;2.30;99.90;;;;;;5053617;28;20449;-76
2022/12/05 03:55:25;;;;;;;17.13;8.43;;;2.30;99.90;;;;;;5053669;28;20802;-73
2022/12/05 03:57:56;;;;;;;16.90;9.97;;;2.30;99.90;;;;;;5053553;28;20958;-73
2022/12/05 04:00:24;;;;;;;17.53;9.30;;;2.40;99.90;;;;;;5053511;28;20970;-74
2022/12/05 04:02:55;;;;;;;15.67;8.60;;;2.40;99.90;;;;;;5052307;28;20446;-75
2022/12/05 04:05:26;;;;;;;19.20;8.77;;;2.40;99.90;;;;;;5052302;28;20497;-77
2022/12/05 04:07:58;;;;;;;17.40;8.10;;;2.30;99.90;;;;;;5053539;28;20455;-77
2022/12/05 04:10:28;;;;;;;15.70;7.73;;;2.30;99.90;;;;;;5052975;28;20492;-73
2022/12/05 04:12:58;;;;;;;17.20;8.27;;;2.40;99.90;;;;;;5053264;28;20446;-73
2022/12/05 04:17:01;;;;;;;18.03;8.97;;;2.40;99.90;;;;;;5053199;28;20472;-76
2022/12/05 04:18:19;;;;;;;24.20;9.07;;;2.40;99.90;;;;;;5053975;28;20435;-75
2022/12/05 04:23:39;;;;;;;18.17;8.33;;;;;;;;;;5022570;28;20440;-74
2022/12/05 04:26:10;;;;;;;16.87;8.80;;;2.30;99.90;;;;;;5036656;28;20458;-73
2022/12/05 04:28:44;;;;;;;13.80;7.80;;;2.30;99.90;;;;;;5033237;28;20462;-73
2022/12/05 04:31:16;;;;;;;20.37;7.40;;;2.40;99.90;;;;;;5033398;28;20444;-73
2022/12/05 04:33:49;;;;;;;14.33;7.00;;;2.10;99.90;;;;;;5031979;28;20966;-74
2022/12/05 04:36:22;;;;;;;24.80;9.30;;;2.30;99.90;;;;;;5037098;28;20534;-77
2022/12/05 04:38:52;;;;;;;14.43;7.43;;;2.30;99.90;;;;;;5041896;28;20512;-75
2022/12/05 04:41:28;;;;;;;19.70;8.80;;;2.40;99.90;;;;;;5064331;28;20434;-75
2022/12/05 04:43:58;;;;;;;19.07;9.03;;;2.40;99.90;;;;;;5059988;28;20841;-73
2022/12/05 04:46:25;;;;;;;18.90;8.30;;;;;;;;;;5053496;28;20457;-75
2022/12/05 04:48:57;;;;;;;22.43;9.23;;;2.40;99.90;;;;;;5061381;28;20473;-77
2022/12/05 04:51:29;;;;;;;18.20;9.87;;;2.50;99.90;;;;;;5052831;28;20461;-76
2022/12/05 04:54:00;;;;;;;14.20;7.07;;;2.40;99.90;;;;;;5064553;28;20458;-77
2022/12/05 04:56:31;;;;;;;18.60;7.90;;;2.30;99.90;;;;;;5053245;28;20441;-74
2022/12/05 04:58:58;;;;;;;13.40;7.50;;;;;;;;;;5054889;28;20494;-72
2022/12/05 05:01:33;;;;;;;14.10;7.13;;;2.20;99.90;;;;;;5057907;28;20453;-77
2022/12/05 05:04:07;;;;;;;15.43;8.03;;;2.30;99.90;;;;;;5016055;28;20498;-74
2022/12/05 05:06:37;;;;;;;14.00;6.70;;;2.30;99.90;;;;;;5020058;28;20458;-74
2022/12/05 05:09:04;;;;;;;11.70;7.23;;;;;;;;;;5016112;28;20983;-76
2022/12/05 05:11:34;;;;;;;14.40;8.40;;;2.40;99.90;;;;;;5019710;28;20453;-76
2022/12/05 05:14:01;;;;;;;16.20;8.00;;;;;;;;;;5017910;28;20444;-78
2022/12/05 05:16:31;;;;;;;13.20;8.03;;;2.40;99.90;;;;;;5021656;28;20452;-75
2022/12/05 05:18:58;;;;;;;16.87;7.63;;;;;;;;;;5016314;28;20471;-75
2022/12/05 05:21:27;;;;;;;17.20;7.60;;;2.50;99.90;;;;;;5027724;28;20446;-74
2022/12/05 05:23:55;;;;;;;16.77;6.80;;;2.50;99.90;;;;;;5057950;28;20453;-77
2022/12/05 05:26:24;;;;;;;16.50;8.07;;;2.50;99.90;;;;;;5069504;28;20538;-75
2022/12/05 05:28:52;;;;;;;17.80;7.80;;;2.30;99.90;;;;;;5069050;28;20484;-73
2022/12/05 05:31:23;;;;;;;21.10;7.90;;;2.60;99.90;;;;;;5063405;28;20466;-74
2022/12/05 05:33:51;;;;;;;15.23;8.70;;;2.70;99.90;;;;;;5043101;28;20942;-77
2022/12/05 05:36:19;;;;;;;16.10;7.47;;;2.50;99.90;;;;;;5056254;28;20446;-74
2022/12/05 05:38:47;;;;;;;18.30;7.90;;;2.50;99.90;;;;;;5057417;28;20442;-74
2022/12/05 05:41:17;;;;;;;17.93;7.80;;;2.60;99.90;;;;;;5056129;28;20489;-76
2022/12/05 05:43:45;;;;;;;12.13;6.83;;;;;;;;;;5056100;28;20442;-75
2022/12/05 05:46:12;;;;;;;18.30;9.17;;;;;;;;;;5036345;28;20543;-75
2022/12/05 05:48:39;;;;;;;17.57;9.07;;;;;;;;;;5052982;28;20471;-75
2022/12/05 05:51:08;;;;;;;17.47;8.43;;;2.50;99.90;;;;;;5036100;28;20451;-75
2022/12/05 05:53:35;;;;;;;15.17;7.53;;;;;;;;;;5036762;28;20458;-77
2022/12/05 05:56:03;;;;;;;17.77;8.37;;;2.50;99.90;;;;;;5055784;28;20949;-77
2022/12/05 05:58:31;;;;;;;13.10;7.10;;;2.50;99.90;;;;;;5054879;28;20467;-77
2022/12/05 06:01:03;;;;;;;13.50;7.23;;;2.50;99.90;;;;;;5055942;28;20451;-75
2022/12/05 06:03:30;;;;;;;11.47;6.37;;;;;;;;;;5054620;28;20446;-77
2022/12/05 06:05:58;;;;;;;16.97;7.93;;;2.50;99.90;;;;;;5055831;28;20493;-79
2022/12/05 06:08:25;;;;;;;14.37;8.63;;;;;;;;;;5055440;28;20446;-75
2022/12/05 06:10:52;;;;;;;19.37;7.67;;;;;;;;;;5055228;28;21012;-75
2022/12/05 06:13:19;;;;;;;14.10;7.00;;;;;;;;;;5054706;28;20481;-74
2022/12/05 06:15:47;;;;;;;18.47;8.20;;;2.40;99.90;;;;;;5055539;28;20447;-78
2022/12/05 06:18:14;;;;;;;17.53;9.77;;;;;;;;;;5054323;28;20453;-76
2022/12/05 06:20:42;;;;;;;12.77;7.23;;;;;;;;;;5055227;28;20451;-74
2022/12/05 06:23:09;;;;;;;15.50;8.03;;;;;;;;;;5054519;28;20462;-78
2022/12/05 06:25:36;;;;;;;17.13;8.50;;;;;;;;;;5055162;28;20493;-75
2022/12/05 06:28:03;;;;;;;16.53;8.80;;;;;;;;;;5055397;28;20813;-74
2022/12/05 06:30:30;;;;;;;15.33;7.13;;;;;;;;;;5055185;28;20458;-73
2022/12/05 06:32:59;;;;;;;16.73;7.60;;;2.50;99.90;;;;;;5053946;28;20455;-73
2022/12/05 06:35:26;;;;;;;14.43;7.67;;;;;;;;;;5055057;28;20461;-75
2022/12/05 06:37:53;;;;;;;15.93;8.00;;;;;;;;;;5054750;28;20477;-74
2022/12/05 06:40:20;;;;;;;14.30;7.80;;;;;;;;;;5055301;28;20451;-77
2022/12/05 06:42:47;;;;;;;13.70;7.67;;;;;;;;;;5036224;28;20477;-75
2022/12/05 06:45:14;;;;;;;12.57;7.73;;;;;;;;;;5054910;28;20490;-74
2022/12/05 06:47:41;;;;;;;14.53;6.97;;;;;;;;;;5052967;28;20463;-73
2022/12/05 06:50:10;;;;;;;18.00;7.70;;;2.50;99.90;;;;;;5054408;28;20471;-76
2022/12/05 06:52:37;;;;;;;12.17;7.30;;;;;;;;;;5054878;28;20449;-78
2022/12/05 06:55:05;;;;;;;12.83;7.53;;;2.80;99.90;;;;;;5054812;28;20442;-74
2022/12/05 06:57:32;;;;;;;12.60;6.63;;;;;;;;;;5054623;28;20446;-75
2022/12/05 07:02:41;;;;;;;14.97;7.80;;;;;;;;;;5033127;28;20799;-74
2022/12/05 07:05:08;;;;;;;10.83;7.00;;;;;;;;;;5034552;28;20499;-75
2022/12/05 07:07:36;;;;;;;14.23;8.97;;;2.50;99.90;;;;;;5034885;28;20449;-76
2022/12/05 07:10:03;;;;;;;16.43;9.70;;;;;;;;;;5034544;28;20479;-74
2022/12/05 07:12:32;;;;;;;14.57;8.17;;;2.60;99.90;;;;;;5034590;28;20446;-74
2022/12/05 07:14:59;;;;;;;13.60;7.37;;;;;;;;;;5034470;28;20782;-73
2022/12/05 07:17:26;;;;;;;12.00;7.13;;;;;;;;;;5052629;28;20462;-75
2022/12/05 07:19:54;;;;;;;15.83;8.07;;;;;;;;;;5053719;28;20942;-74
2022/12/05 07:22:23;;;;;;;10.53;7.57;;;3.00;99.90;;;;;;5053657;28;20461;-73
2022/12/05 07:24:52;;;;;;;12.20;6.50;;;2.90;99.90;;;;;;5054261;28;20482;-73
2022/12/05 07:27:19;;;;;;;15.23;8.10;;;;;;;;;;5052720;28;20524;-73
2022/12/05 07:29:46;;;;;;;10.77;6.47;;;;;;;;;;5054108;28;20447;-77
2022/12/05 07:32:14;;;;;;;6.17;4.40;;;;;;;;;;5054667;28;20834;-73
2022/12/05 07:34:41;;;;;;;10.77;6.00;;;;;;;;;;5053003;28;20478;-78
2022/12/05 07:37:08;;;;;;;11.97;6.43;;;;;;;;;;5054244;28;20553;-76
2022/12/05 07:39:35;;;;;;;11.70;7.27;;;;;;;;;;5053814;28;20447;-74
2022/12/05 07:42:03;;;;;;;9.70;6.10;;;3.20;99.90;;;;;;5052330;28;20985;-79
2022/12/05 07:44:30;;;;;;;11.50;7.00;;;;;;;;;;5051496;28;20466;-78
2022/12/05 07:46:58;;;;;;;14.00;8.00;;;3.40;99.90;;;;;;5053782;28;20449;-84
2022/12/05 07:49:25;;;;;;;14.17;7.47;;;;;;;;;;5071559;28;20470;-75
2022/12/05 07:51:52;;;;;;;17.37;8.00;;;;;;;;;;5034240;28;20824;-73
2022/12/05 07:54:19;;;;;;;14.90;7.90;;;;;;;;;;5039349;28;20449;-77
2022/12/05 07:56:46;;;;;;;11.53;7.33;;;;;;;;;;5053735;28;20450;-74
2022/12/05 07:59:15;;;;;;;11.57;7.00;;;3.50;99.90;;;;;;5052985;28;20450;-83
2022/12/05 08:01:42;;;;;;;14.33;7.57;;;;;;;;;;5053084;28;20972;-75
2022/12/05 08:04:09;;;;;;;12.20;6.57;;;;;;;;;;5052587;28;20446;-77
2022/12/05 08:06:36;;;;;;;9.13;5.70;;;;;;;;;;5041912;28;20517;-84
2022/12/05 08:09:03;;;;;;;9.97;6.00;;;;;;;;;;5044759;28;20495;-78
2022/12/05 08:11:34;;;;;;;11.10;7.40;;;3.60;99.90;;;;;;5053167;28;20462;-82
2022/12/05 08:14:01;;;;;;;10.23;6.00;;;;;;;;;;5051357;28;20490;-83
2022/12/05 08:16:30;;;;;;;10.93;6.30;;;3.60;99.90;;;;;;5046228;28;20467;-79
2022/12/05 08:18:59;;;;;;;11.40;7.00;;;3.60;99.90;;;;;;5040086;28;20463;-81
2022/12/05 08:21:26;;;;;;;9.30;5.80;;;;;;;;;;5035537;28;20447;-79
2022/12/05 08:23:53;;;;;;;7.23;4.67;;;3.50;99.90;;;;;;5045348;28;20476;-78
2022/12/05 08:26:23;;;;;;;10.23;6.20;;;3.40;99.90;;;;;;5051422;28;20498;-80
2022/12/05 08:28:52;;;;;;;11.53;7.67;;;3.40;99.90;;;;;;5053312;28;20450;-74
2022/12/05 08:31:22;;;;;;;14.70;9.07;;;3.50;99.90;;;;;;5053023;28;20441;-76
2022/12/05 08:33:51;;;;;;;10.60;7.13;;;3.40;99.90;;;;;;5051716;28;20463;-74
2022/12/05 08:36:19;;;;;;;8.43;6.00;;;3.50;99.90;;;;;;5052818;28;20443;-76
2022/12/05 08:38:46;;;;;;;9.80;6.13;;;;;;;;;;5053513;28;20501;-75
2022/12/05 08:41:16;;;;;;;9.03;6.77;;;3.50;99.90;;;;;;5053014;28;20468;-74
2022/12/05 08:43:43;;;;;;;14.07;6.97;;;;;;;;;;5052670;28;20442;-78
2022/12/05 08:46:10;;;;;;;9.80;5.67;;;;;;;;;;5051473;28;20494;-82
2022/12/05 08:48:37;;;;;;;6.87;4.80;;;;;;;;;;5051432;28;20470;-81
2022/12/05 08:51:07;;;;;;;11.80;7.50;;;3.70;99.90;;;;;;5052797;28;20621;-74
2022/12/05 08:53:35;;;;;;;11.50;6.30;;;3.70;99.90;;;;;;5052883;28;20541;-75
2022/12/05 08:56:02;;;;;;;10.50;6.60;;;;;;;;;;5050614;28;20467;-81
2022/12/05 08:58:29;;;;;;;9.43;4.50;;;;;;;;;;5051657;28;20500;-76
2022/12/05 09:01:04;;;;;;;9.87;6.80;;;3.80;99.90;;;;;;5052769;28;20448;-75
2022/12/05 09:03:31;;;;;;;17.77;10.83;;;;;;;;;;5051362;28;20468;-73
2022/12/05 09:06:07;;;;;;;9.50;6.73;;;;;;;;;;5052592;28;20482;-74
2022/12/05 09:08:34;;;;;;;11.00;7.80;;;;;;;;;;5052534;28;20450;-74
2022/12/05 09:11:06;;;;;;;9.80;6.03;;;4.00;99.90;;;;;;5052749;28;20442;-77
2022/12/05 09:13:33;;;;;;;7.57;5.33;;;;;;;;;;5052601;28;20512;-79
2022/12/05 09:16:05;;;;;;;10.80;6.40;;;4.20;99.90;;;;;;5052333;28;20801;-75
2022/12/05 09:18:33;;;;;;;18.43;8.80;;;4.20;99.90;;;;;;5051547;28;20454;-79
2022/12/05 09:21:07;;;;;;;8.83;4.93;;;4.30;99.90;;;;;;5052583;28;20445;-77
2022/12/05 09:23:34;;;;;;;10.27;6.60;;;;;;;;;;5052529;28;20815;-72
2022/12/05 09:26:01;;;;;;;6.30;4.70;;;;;;;;;;5052426;28;21017;-74
2022/12/05 09:28:28;;;;;;;12.63;8.13;;;;;;;;;;5052457;28;20451;-73
2022/12/05 09:31:00;;;;;;;9.97;6.93;;;4.50;99.90;;;;;;5052465;28;20456;-74
2022/12/05 09:33:27;;;;;;;8.47;5.47;;;;;;;;;;5051153;28;20451;-74
2022/12/05 09:35:54;;;;;;;9.13;6.13;;;;;;;;;;5052520;28;20473;-73
2022/12/05 09:38:23;;;;;;;3.63;2.07;;;4.60;99.90;;;;;;5052473;28;20457;-76
2022/12/05 09:41:02;;;;;;;9.00;5.47;;;4.60;99.90;;;;;;5052332;28;20446;-80
2022/12/05 09:43:36;;;;;;;6.80;4.70;;;4.60;99.90;;;;;;5052259;28;20449;-79
2022/12/05 09:46:14;;;;;;;5.00;4.27;;;4.70;99.90;;;;;;5054385;28;20493;-73
2022/12/05 09:48:43;;;;;;;5.40;3.10;;;;;;;;;;5054837;28;20450;-79
2022/12/05 09:51:12;;;;;;;2.80;1.57;;;4.70;99.90;;;;;;5056060;28;20458;-74
2022/12/05 09:53:42;;;;;;;5.30;3.83;;;4.80;99.90;;;;;;5055895;28;20451;-80
2022/12/05 09:56:16;;;;;;;6.73;4.40;;;4.80;99.90;;;;;;5055949;28;20457;-81
2022/12/05 09:58:46;;;;;;;5.47;4.00;;;4.90;99.90;;;;;;5055746;28;20974;-72
2022/12/05 10:01:25;;;;;;;5.23;3.93;;;4.90;99.90;;;;;;5055779;28;20449;-75
2022/12/05 10:04:05;;;;;;;6.77;4.40;;;4.90;99.90;;;;;;5054605;28;20446;-78
2022/12/05 10:06:40;;;;;;;5.70;4.10;;;4.90;99.90;;;;;;5055627;28;20992;-84
2022/12/05 10:09:26;;;;;;;4.80;4.07;;;4.90;99.90;;;;;;5055482;28;20478;-75
2022/12/05 10:11:59;;;;;;;7.87;5.30;;;4.90;99.90;;;;;;5055578;28;20450;-82
2022/12/05 10:14:36;;;;;;;5.67;4.30;;;5.00;99.90;;;;;;5055538;28;20447;-76
2022/12/05 10:17:08;;;;;;;5.23;3.70;;;5.00;99.90;;;;;;5055513;28;20441;-77
2022/12/05 10:19:41;;;;;;;4.67;2.97;;;5.00;99.90;;;;;;5054271;28;20465;-78
2022/12/05 10:22:13;;;;;;;5.70;3.47;;;5.00;99.90;;;;;;5055500;28;20453;-75
2022/12/05 10:24:46;;;;;;;3.63;2.17;;;5.10;99.90;;;;;;5055428;28;20445;-87
2022/12/05 10:27:19;;;;;;;5.63;3.60;;;5.10;99.90;;;;;;5055180;28;20964;-77
2022/12/05 10:29:53;;;;;;;3.93;2.70;;;5.20;99.90;;;;;;5055286;28;20446;-75
2022/12/05 10:32:25;;;;;;;7.77;4.10;;;5.30;99.90;;;;;;5055248;28;20448;-77
2022/12/05 10:34:59;;;;;;;1.80;1.20;;;5.30;99.90;;;;;;5054193;28;20948;-82
2022/12/05 10:37:29;;;;;;;5.80;3.87;;;;;;;;;;5055126;28;20447;-80
2022/12/05 10:39:58;;;;;;;4.70;3.50;;;5.50;99.90;;;;;;5055087;28;20447;-78
2022/12/05 10:42:29;;;;;;;6.53;4.10;;;5.50;99.90;;;;;;5055145;28;20452;-78
2022/12/05 10:44:58;;;;;;;5.03;3.70;;;5.60;99.90;;;;;;5055057;28;21039;-78
2022/12/05 10:47:25;;;;;;;3.77;3.10;;;;;;;;;;5054973;28;20486;-74
2022/12/05 10:49:52;;;;;;;5.00;3.67;;;5.60;99.90;;;;;;5053733;28;20930;-73
2022/12/05 10:52:20;;;;;;;4.33;2.87;;;;;;;;;;5054802;28;20457;-81
2022/12/05 10:54:51;;;;;;;5.20;3.67;;;5.70;99.90;;;;;;5054885;28;20446;-81
2022/12/05 10:57:25;;;;;;;9.73;3.50;;;5.80;99.90;;;;;;5053657;28;20453;-82
2022/12/05 10:59:53;;;;;;;5.60;3.57;;;5.70;99.90;;;;;;5054592;28;20468;-75
2022/12/05 11:02:25;;;;;;;5.80;4.03;;;5.80;99.90;;;;;;5054733;28;20450;-77
2022/12/05 11:04:53;;;;;;;6.80;4.10;;;;;;;;;;5053521;28;20453;-76
2022/12/05 11:07:28;;;;;;;6.53;4.00;;;5.90;99.90;;;;;;5049858;28;20489;-74
2022/12/05 11:09:55;;;;;;;4.77;2.80;;;;;;;;;;5034052;28;20839;-75
2022/12/05 11:12:25;;;;;;;5.30;3.70;;;5.70;99.90;;;;;;5042303;28;20484;-75
2022/12/05 11:15:01;;;;;;;3.43;2.80;;;5.60;99.90;;;;;;5054339;28;20451;-77
2022/12/05 11:17:32;;;;;;;13.03;2.27;;;5.70;99.90;;;;;;5054119;28;20450;-74
2022/12/05 11:20:01;;;;;;;3.53;2.47;;;;;;;;;;5054114;28;20477;-75
2022/12/05 11:22:33;;;;;;;4.03;3.00;;;6.00;99.90;;;;;;5053567;28;20442;-74
2022/12/05 11:25:00;;;;;;;3.40;2.60;;;;;;;;;;5065378;28;20438;-74
2022/12/05 11:27:30;;;;;;;2.63;2.40;;;6.20;99.90;;;;;;5072302;28;20500;-82
2022/12/05 11:30:00;;;;;;;4.73;2.47;;;6.70;99.90;;;;;;5054105;28;20450;-75
2022/12/05 11:32:30;;;;;;;3.23;2.63;;;7.00;99.90;;;;;;5053893;28;20447;-75
2022/12/05 11:35:07;;;;;;;3.10;2.37;;;7.40;99.90;;;;;;5053332;28;20446;-75
2022/12/05 11:37:40;;;;;;;2.27;1.63;;;6.80;99.90;;;;;;5053963;28;21061;-81
2022/12/05 11:40:15;;;;;;;3.43;2.50;;;7.00;99.90;;;;;;5053779;28;20443;-75
2022/12/05 11:43:06;;;;;;;5.20;3.10;;;6.90;99.90;;;;;;5053767;28;20504;-83
2022/12/05 11:45:45;;;;;;;3.97;2.80;;;6.70;99.90;;;;;;5053841;28;20443;-74
2022/12/05 11:48:32;;;;;;;4.13;2.47;;;6.80;99.90;;;;;;5052583;28;20453;-77
2022/12/05 11:51:14;;;;;;;2.87;2.00;;;6.70;99.90;;;;;;5053678;28;20934;-75
2022/12/05 11:54:07;;;;;;;2.50;2.10;;;6.70;99.90;;;;;;5033840;28;20451;-75
2022/12/05 11:56:38;;;;;;;2.73;2.17;;;6.50;99.90;;;;;;5033650;28;20501;-74
2022/12/05 11:59:36;;;;;;;3.33;1.90;;;6.90;99.90;;;;;;5033624;28;20476;-80
2022/12/05 12:02:15;;;;;;;2.00;1.50;;;6.60;99.90;;;;;;5033138;28;20455;-81
2022/12/05 12:04:54;;;;;;;4.60;2.30;;;6.40;99.90;;;;;;5032329;28;20451;-75
2022/12/05 12:07:39;;;;;;;2.80;1.63;;;6.50;99.90;;;;;;5033365;28;20491;-75
2022/12/05 12:10:18;;;;;;;3.57;2.33;;;6.60;99.90;;;;;;5033325;28;20506;-77
2022/12/05 12:12:55;;;;;;;2.60;2.30;;;6.60;99.90;;;;;;5033493;28;20454;-74
2022/12/05 12:15:40;;;;;;;2.53;1.43;;;6.20;99.90;;;;;;5033366;28;20447;-80
2022/12/05 12:18:19;;;;;;;3.27;1.73;;;6.30;99.90;;;;;;5032115;28;20487;-75
2022/12/05 12:21:01;;;;;;;4.00;2.57;;;6.50;99.90;;;;;;5033397;28;20440;-76
2022/12/05 12:23:38;;;;;;;2.47;2.27;;;6.80;99.90;;;;;;5033329;28;20449;-79
2022/12/05 12:26:11;;;;;;;2.50;1.67;;;7.30;99.90;;;;;;5033192;28;20483;-74
2022/12/05 12:28:50;;;;;;;2.73;2.17;;;7.50;99.90;;;;;;5033263;28;20451;-77
2022/12/05 12:31:40;;;;;;;3.03;2.37;;;7.40;99.90;;;;;;5033318;28;20450;-74
2022/12/05 12:34:24;;;;;;;3.00;2.23;;;7.20;99.90;;;;;;5027390;28;20958;-76
2022/12/05 12:36:56;;;;;;;3.20;2.20;;;6.90;99.90;;;;;;5033052;28;20455;-80
2022/12/05 12:39:37;;;;;;;5.20;2.50;;;6.90;99.90;;;;;;5033109;28;20452;-76
2022/12/05 12:42:19;;;;;;;4.80;3.00;;;6.90;99.90;;;;;;5032943;28;20439;-75
2022/12/05 12:45:09;;;;;;;3.50;2.53;;;6.70;99.90;;;;;;5032938;28;20447;-76
2022/12/05 12:47:50;;;;;;;3.73;2.90;;;6.80;99.90;;;;;;5031663;28;21034;-75
2022/12/05 12:50:20;;;;;;;3.20;2.07;;;6.60;99.90;;;;;;5032865;28;20938;-78
2022/12/05 12:53:13;;;;;;;3.37;2.43;;;6.60;99.90;;;;;;5032980;28;20447;-76
2022/12/05 12:55:46;;;;;;;3.47;2.93;;;6.70;99.90;;;;;;5037607;28;20462;-77
2022/12/05 12:58:28;;;;;;;2.53;1.70;;;6.40;99.90;;;;;;5051310;28;20490;-77
2022/12/05 13:01:02;;;;;;;1.53;1.40;;;6.30;99.90;;;;;;5049873;28;20963;-76
2022/12/05 13:03:35;;;;;;;3.60;2.90;;;6.30;99.90;;;;;;5051257;28;20544;-73
2022/12/05 13:06:09;;;;;;;3.07;2.33;;;6.30;99.90;;;;;;5051668;28;20458;-76
2022/12/05 13:08:43;;;;;;;2.60;2.40;;;6.40;99.90;;;;;;5052384;28;20848;-75
2022/12/05 13:11:13;;;;;;;4.47;3.77;;;6.40;99.90;;;;;;5052577;28;20449;-74
2022/12/05 13:13:45;;;;;;;8.40;4.10;;;6.60;99.90;;;;;;5052567;28;20959;-80
2022/12/05 13:16:16;;;;;;;3.00;2.37;;;6.50;99.90;;;;;;5052646;28;20446;-82
2022/12/05 13:18:46;;;;;;;4.13;3.17;;;6.50;99.90;;;;;;5051475;28;20942;-84
2022/12/05 13:21:13;;;;;;;3.87;3.33;;;;;;;;;;5053993;28;20954;-74
2022/12/05 13:23:46;;;;;;;3.10;2.40;;;6.50;99.90;;;;;;5056620;28;20504;-74
2022/12/05 13:26:15;;;;;;;6.30;3.50;;;6.50;99.90;;;;;;5056647;28;20465;-74
2022/12/05 13:28:49;;;;;;;4.60;3.60;;;6.60;99.90;;;;;;5056139;28;20450;-75
2022/12/05 13:31:18;;;;;;;2.90;2.33;;;;;;;;;;5056491;28;20454;-74
2022/12/05 13:33:48;;;;;;;5.30;4.23;;;6.50;99.90;;;;;;5055310;28;20458;-75
2022/12/05 13:44:41;;;;;;;5.07;3.47;;;6.30;99.90;;;;;;5036290;28;20430;-75
2022/12/05 13:47:23;;;;;;;3.10;2.60;;;6.40;99.90;;;;;;5054809;28;20890;-82
2022/12/05 13:49:55;;;;;;;3.30;2.63;;;6.30;99.90;;;;;;5054830;28;20446;-84
2022/12/05 13:52:24;;;;;;;4.17;2.40;;;6.20;99.90;;;;;;5056132;28;20453;-80
2022/12/05 13:54:57;;;;;;;3.63;2.60;;;6.20;99.90;;;;;;5054241;28;20553;-79
2022/12/05 13:57:50;;;;;;;4.67;2.53;;;6.00;99.90;;;;;;5054145;28;20472;-79